sensor_id;sensor_type;location;lat;lon;timestamp;temperature;humidity
47434;SHT31;33184;48.774;8.918;2022-10-19T00:03:22;12.42;90.49
47434;SHT31;33184;48.774;8.918;2022-10-19T00:08:43;12.56;90.98
47434;SHT31;33184;48.774;8.918;2022-10-19T00:14:05;12.56;90.72
47434;SHT31;33184;48.774;8.918;2022-10-19T00:19:26;12.44;90.72
47434;SHT31;33184;48.774;8.918;2022-10-19T00:24:47;12.47;90.87
47434;SHT31;33184;48.774;8.918;2022-10-19T00:30:08;12.42;90.82
47434;SHT31;33184;48.774;8.918;2022-10-19T00:35:29;12.39;90.57
47434;SHT31;33184;48.774;8.918;2022-10-19T00:40:49;12.28;90.43
47434;SHT31;33184;48.774;8.918;2022-10-19T00:46:12;12.33;90.59
47434;SHT31;33184;48.774;8.918;2022-10-19T00:51:33;12.25;90.35
47434;SHT31;33184;48.774;8.918;2022-10-19T00:56:56;12.30;90.42
47434;SHT31;33184;48.774;8.918;2022-10-19T01:02:17;12.23;90.31
47434;SHT31;33184;48.774;8.918;2022-10-19T01:07:38;12.19;90.55
47434;SHT31;33184;48.774;8.918;2022-10-19T01:19:05;12.05;91.13
47434;SHT31;33184;48.774;8.918;2022-10-19T01:31:01;12.03;91.22
47434;SHT31;33184;48.774;8.918;2022-10-19T01:36:13;12.02;91.02
47434;SHT31;33184;48.774;8.918;2022-10-19T01:47:19;11.95;91.31
47434;SHT31;33184;48.774;8.918;2022-10-19T01:52:42;11.98;91.61
47434;SHT31;33184;48.774;8.918;2022-10-19T01:58:06;11.88;91.81
47434;SHT31;33184;48.774;8.918;2022-10-19T02:03:27;12.03;92.21
47434;SHT31;33184;48.774;8.918;2022-10-19T02:08:50;12.08;92.20
47434;SHT31;33184;48.774;8.918;2022-10-19T02:14:14;12.19;92.22
47434;SHT31;33184;48.774;8.918;2022-10-19T02:19:36;12.23;92.08
47434;SHT31;33184;48.774;8.918;2022-10-19T02:24:57;12.22;91.97
47434;SHT31;33184;48.774;8.918;2022-10-19T02:30:19;12.16;91.90
47434;SHT31;33184;48.774;8.918;2022-10-19T02:35:41;11.95;92.12
47434;SHT31;33184;48.774;8.918;2022-10-19T02:41:20;11.92;92.11
47434;SHT31;33184;48.774;8.918;2022-10-19T02:46:50;11.93;92.60
47434;SHT31;33184;48.774;8.918;2022-10-19T02:52:11;12.02;92.82
47434;SHT31;33184;48.774;8.918;2022-10-19T02:57:33;12.13;92.82
47434;SHT31;33184;48.774;8.918;2022-10-19T03:02:53;12.22;92.74
47434;SHT31;33184;48.774;8.918;2022-10-19T03:08:14;12.29;92.51
47434;SHT31;33184;48.774;8.918;2022-10-19T03:13:34;12.32;92.41
47434;SHT31;33184;48.774;8.918;2022-10-19T03:18:55;12.39;92.63
47434;SHT31;33184;48.774;8.918;2022-10-19T03:24:15;12.49;92.95
47434;SHT31;33184;48.774;8.918;2022-10-19T03:29:36;12.51;93.23
47434;SHT31;33184;48.774;8.918;2022-10-19T03:34:57;12.40;93.09
47434;SHT31;33184;48.774;8.918;2022-10-19T03:40:17;12.43;93.52
47434;SHT31;33184;48.774;8.918;2022-10-19T03:45:38;12.46;93.75
47434;SHT31;33184;48.774;8.918;2022-10-19T03:51:03;12.40;93.94
47434;SHT31;33184;48.774;8.918;2022-10-19T03:56:25;12.33;94.27
47434;SHT31;33184;48.774;8.918;2022-10-19T04:01:46;12.33;94.24
47434;SHT31;33184;48.774;8.918;2022-10-19T04:07:07;12.30;94.38
47434;SHT31;33184;48.774;8.918;2022-10-19T04:12:27;12.36;94.47
47434;SHT31;33184;48.774;8.918;2022-10-19T04:17:48;12.46;94.52
47434;SHT31;33184;48.774;8.918;2022-10-19T04:23:08;12.57;94.61
47434;SHT31;33184;48.774;8.918;2022-10-19T04:28:30;12.64;94.57
47434;SHT31;33184;48.774;8.918;2022-10-19T04:33:50;12.71;94.60
47434;SHT31;33184;48.774;8.918;2022-10-19T04:39:11;12.74;94.64
47434;SHT31;33184;48.774;8.918;2022-10-19T04:44:31;12.71;94.63
47434;SHT31;33184;48.774;8.918;2022-10-19T04:49:52;12.68;94.89
47434;SHT31;33184;48.774;8.918;2022-10-19T04:55:12;12.70;95.01
47434;SHT31;33184;48.774;8.918;2022-10-19T05:00:33;12.83;95.02
47434;SHT31;33184;48.774;8.918;2022-10-19T05:05:54;12.94;95.05
47434;SHT31;33184;48.774;8.918;2022-10-19T05:11:18;12.94;94.86
47434;SHT31;33184;48.774;8.918;2022-10-19T05:16:39;12.98;94.75
47434;SHT31;33184;48.774;8.918;2022-10-19T05:21:59;13.03;94.60
47434;SHT31;33184;48.774;8.918;2022-10-19T05:27:20;13.07;94.50
47434;SHT31;33184;48.774;8.918;2022-10-19T05:32:41;13.08;94.38
47434;SHT31;33184;48.774;8.918;2022-10-19T05:38:01;13.16;94.25
47434;SHT31;33184;48.774;8.918;2022-10-19T05:43:22;13.16;94.21
47434;SHT31;33184;48.774;8.918;2022-10-19T05:48:43;13.16;93.99
47434;SHT31;33184;48.774;8.918;2022-10-19T05:54:04;13.12;93.85
47434;SHT31;33184;48.774;8.918;2022-10-19T05:59:25;13.14;93.94
47434;SHT31;33184;48.774;8.918;2022-10-19T06:04:45;13.19;93.97
47434;SHT31;33184;48.774;8.918;2022-10-19T06:10:06;13.16;93.85
47434;SHT31;33184;48.774;8.918;2022-10-19T06:15:32;13.24;93.96
47434;SHT31;33184;48.774;8.918;2022-10-19T06:20:53;13.24;93.82
47434;SHT31;33184;48.774;8.918;2022-10-19T06:26:13;13.26;94.01
47434;SHT31;33184;48.774;8.918;2022-10-19T06:31:34;13.34;94.15
47434;SHT31;33184;48.774;8.918;2022-10-19T06:36:55;13.42;94.23
47434;SHT31;33184;48.774;8.918;2022-10-19T06:42:16;13.50;94.33
47434;SHT31;33184;48.774;8.918;2022-10-19T06:47:36;13.55;94.29
47434;SHT31;33184;48.774;8.918;2022-10-19T06:52:58;13.49;94.09
47434;SHT31;33184;48.774;8.918;2022-10-19T06:58:19;13.49;94.27
47434;SHT31;33184;48.774;8.918;2022-10-19T07:03:39;13.53;94.27
47434;SHT31;33184;48.774;8.918;2022-10-19T07:09:00;13.55;94.20
47434;SHT31;33184;48.774;8.918;2022-10-19T07:14:22;13.65;94.30
47434;SHT31;33184;48.774;8.918;2022-10-19T07:19:47;13.72;94.13
47434;SHT31;33184;48.774;8.918;2022-10-19T07:25:08;13.77;94.08
47434;SHT31;33184;48.774;8.918;2022-10-19T07:30:28;13.83;94.11
47434;SHT31;33184;48.774;8.918;2022-10-19T07:35:56;13.85;94.12
47434;SHT31;33184;48.774;8.918;2022-10-19T07:41:19;13.91;94.29
47434;SHT31;33184;48.774;8.918;2022-10-19T07:46:40;14.04;94.29
47434;SHT31;33184;48.774;8.918;2022-10-19T07:52:01;14.17;94.20
47434;SHT31;33184;48.774;8.918;2022-10-19T07:57:21;14.28;94.05
47434;SHT31;33184;48.774;8.918;2022-10-19T08:02:42;14.40;93.76
47434;SHT31;33184;48.774;8.918;2022-10-19T08:08:03;14.50;93.43
47434;SHT31;33184;48.774;8.918;2022-10-19T08:13:24;14.60;92.87
47434;SHT31;33184;48.774;8.918;2022-10-19T08:18:44;14.61;91.72
47434;SHT31;33184;48.774;8.918;2022-10-19T08:24:05;14.65;91.54
47434;SHT31;33184;48.774;8.918;2022-10-19T08:29:26;14.69;91.40
47434;SHT31;33184;48.774;8.918;2022-10-19T08:34:47;14.74;91.28
47434;SHT31;33184;48.774;8.918;2022-10-19T08:40:16;14.75;91.01
47434;SHT31;33184;48.774;8.918;2022-10-19T08:45:41;14.81;90.97
47434;SHT31;33184;48.774;8.918;2022-10-19T08:51:03;14.84;90.47
47434;SHT31;33184;48.774;8.918;2022-10-19T09:07:52;14.96;89.72
47434;SHT31;33184;48.774;8.918;2022-10-19T09:18:43;15.19;89.20
47434;SHT31;33184;48.774;8.918;2022-10-19T09:24:04;15.29;88.49
47434;SHT31;33184;48.774;8.918;2022-10-19T09:34:59;15.35;87.69
47434;SHT31;33184;48.774;8.918;2022-10-19T09:40:24;15.23;87.32
47434;SHT31;33184;48.774;8.918;2022-10-19T09:51:14;15.29;87.45
47434;SHT31;33184;48.774;8.918;2022-10-19T09:56:35;15.30;87.68
47434;SHT31;33184;48.774;8.918;2022-10-19T10:02:27;15.27;86.89
47434;SHT31;33184;48.774;8.918;2022-10-19T10:07:53;15.24;86.75
47434;SHT31;33184;48.774;8.918;2022-10-19T10:13:17;15.30;86.99
47434;SHT31;33184;48.774;8.918;2022-10-19T10:18:52;15.43;87.43
47434;SHT31;33184;48.774;8.918;2022-10-19T10:29:37;15.67;85.35
47434;SHT31;33184;48.774;8.918;2022-10-19T10:35:06;15.50;85.16
47434;SHT31;33184;48.774;8.918;2022-10-19T10:40:29;15.49;84.57
47434;SHT31;33184;48.774;8.918;2022-10-19T10:45:50;15.61;84.85
47434;SHT31;33184;48.774;8.918;2022-10-19T10:51:42;15.47;84.96
47434;SHT31;33184;48.774;8.918;2022-10-19T10:57:10;15.43;85.13
47434;SHT31;33184;48.774;8.918;2022-10-19T11:02:53;15.29;85.30
47434;SHT31;33184;48.774;8.918;2022-10-19T11:14:44;15.27;85.18
47434;SHT31;33184;48.774;8.918;2022-10-19T11:20:06;15.19;84.68
47434;SHT31;33184;48.774;8.918;2022-10-19T11:31:17;15.09;85.32
47434;SHT31;33184;48.774;8.918;2022-10-19T11:36:58;15.17;84.86
47434;SHT31;33184;48.774;8.918;2022-10-19T11:42:56;15.30;84.65
47434;SHT31;33184;48.774;8.918;2022-10-19T12:11:00;15.70;83.34
47434;SHT31;33184;48.774;8.918;2022-10-19T12:16:46;15.82;83.08
47434;SHT31;33184;48.774;8.918;2022-10-19T12:22:15;15.97;82.67
47434;SHT31;33184;48.774;8.918;2022-10-19T12:27:38;15.98;82.66
47434;SHT31;33184;48.774;8.918;2022-10-19T12:38:45;16.01;82.70
47434;SHT31;33184;48.774;8.918;2022-10-19T12:44:12;16.12;82.74
47434;SHT31;33184;48.774;8.918;2022-10-19T12:49:44;16.22;82.22
47434;SHT31;33184;48.774;8.918;2022-10-19T13:00:35;16.26;81.00
47434;SHT31;33184;48.774;8.918;2022-10-19T13:05:58;16.46;80.69
47434;SHT31;33184;48.774;8.918;2022-10-19T13:11:20;16.42;80.06
47434;SHT31;33184;48.774;8.918;2022-10-19T13:16:56;16.33;80.30
47434;SHT31;33184;48.774;8.918;2022-10-19T13:22:27;16.28;80.22
47434;SHT31;33184;48.774;8.918;2022-10-19T13:44:22;16.49;79.62
47434;SHT31;33184;48.774;8.918;2022-10-19T13:50:21;16.49;79.70
47434;SHT31;33184;48.774;8.918;2022-10-19T13:56:07;16.43;79.51
47434;SHT31;33184;48.774;8.918;2022-10-19T14:02:07;16.46;79.64
47434;SHT31;33184;48.774;8.918;2022-10-19T14:07:48;16.51;79.12
47434;SHT31;33184;48.774;8.918;2022-10-19T14:13:13;16.57;79.64
47434;SHT31;33184;48.774;8.918;2022-10-19T14:18:35;16.77;79.52
47434;SHT31;33184;48.774;8.918;2022-10-19T14:23:57;16.70;79.70
47434;SHT31;33184;48.774;8.918;2022-10-19T14:29:17;16.96;78.79
47434;SHT31;33184;48.774;8.918;2022-10-19T14:34:43;16.96;78.26
47434;SHT31;33184;48.774;8.918;2022-10-19T14:40:27;16.82;78.19
47434;SHT31;33184;48.774;8.918;2022-10-19T14:51:31;16.60;78.81
47434;SHT31;33184;48.774;8.918;2022-10-19T14:57:06;16.74;78.72
47434;SHT31;33184;48.774;8.918;2022-10-19T15:02:39;16.92;78.55
47434;SHT31;33184;48.774;8.918;2022-10-19T15:08:10;16.97;77.47
47434;SHT31;33184;48.774;8.918;2022-10-19T15:13:41;16.89;77.15
47434;SHT31;33184;48.774;8.918;2022-10-19T15:19:10;16.73;77.63
47434;SHT31;33184;48.774;8.918;2022-10-19T15:24:34;16.73;77.96
47434;SHT31;33184;48.774;8.918;2022-10-19T15:35:43;16.55;78.30
47434;SHT31;33184;48.774;8.918;2022-10-19T15:41:04;16.24;78.57
47434;SHT31;33184;48.774;8.918;2022-10-19T15:46:27;16.08;79.07
47434;SHT31;33184;48.774;8.918;2022-10-19T15:51:49;16.02;79.23
47434;SHT31;33184;48.774;8.918;2022-10-19T15:57:33;15.94;79.42
47434;SHT31;33184;48.774;8.918;2022-10-19T16:02:54;15.85;79.88
47434;SHT31;33184;48.774;8.918;2022-10-19T16:08:14;15.78;79.96
47434;SHT31;33184;48.774;8.918;2022-10-19T16:13:35;15.68;80.35
47434;SHT31;33184;48.774;8.918;2022-10-19T16:18:56;15.47;80.59
47434;SHT31;33184;48.774;8.918;2022-10-19T16:24:17;15.37;80.84
47434;SHT31;33184;48.774;8.918;2022-10-19T16:29:37;15.23;81.21
47434;SHT31;33184;48.774;8.918;2022-10-19T16:34:58;15.10;81.60
47434;SHT31;33184;48.774;8.918;2022-10-19T16:40:18;15.03;81.94
47434;SHT31;33184;48.774;8.918;2022-10-19T16:45:42;14.88;82.13
47434;SHT31;33184;48.774;8.918;2022-10-19T16:56:28;14.65;82.72
47434;SHT31;33184;48.774;8.918;2022-10-19T17:01:49;14.61;82.84
47434;SHT31;33184;48.774;8.918;2022-10-19T17:07:10;14.55;82.99
47434;SHT31;33184;48.774;8.918;2022-10-19T17:12:32;14.44;83.28
47434;SHT31;33184;48.774;8.918;2022-10-19T17:17:52;14.40;83.41
47434;SHT31;33184;48.774;8.918;2022-10-19T17:23:14;14.30;83.69
47434;SHT31;33184;48.774;8.918;2022-10-19T17:28:36;14.22;83.95
47434;SHT31;33184;48.774;8.918;2022-10-19T17:33:57;14.01;84.13
47434;SHT31;33184;48.774;8.918;2022-10-19T17:39:21;13.90;84.67
47434;SHT31;33184;48.774;8.918;2022-10-19T17:44:42;13.80;84.69
47434;SHT31;33184;48.774;8.918;2022-10-19T17:50:03;13.58;85.08
47434;SHT31;33184;48.774;8.918;2022-10-19T17:55:23;13.52;85.31
47434;SHT31;33184;48.774;8.918;2022-10-19T18:00:46;13.48;85.25
47434;SHT31;33184;48.774;8.918;2022-10-19T18:06:09;13.40;85.55
47434;SHT31;33184;48.774;8.918;2022-10-19T18:11:33;13.42;85.95
47434;SHT31;33184;48.774;8.918;2022-10-19T18:16:56;13.45;86.16
47434;SHT31;33184;48.774;8.918;2022-10-19T18:22:16;13.38;86.45
47434;SHT31;33184;48.774;8.918;2022-10-19T18:27:40;13.43;86.90
47434;SHT31;33184;48.774;8.918;2022-10-19T18:33:02;13.45;86.94
47434;SHT31;33184;48.774;8.918;2022-10-19T18:38:23;13.45;87.06
47434;SHT31;33184;48.774;8.918;2022-10-19T18:43:43;13.48;86.99
47434;SHT31;33184;48.774;8.918;2022-10-19T18:49:09;13.46;86.93
47434;SHT31;33184;48.774;8.918;2022-10-19T18:54:30;13.49;86.96
47434;SHT31;33184;48.774;8.918;2022-10-19T18:59:50;13.53;87.24
47434;SHT31;33184;48.774;8.918;2022-10-19T19:05:11;13.56;87.25
47434;SHT31;33184;48.774;8.918;2022-10-19T19:10:32;13.60;87.11
47434;SHT31;33184;48.774;8.918;2022-10-19T19:15:57;13.40;87.00
47434;SHT31;33184;48.774;8.918;2022-10-19T19:21:24;13.40;87.49
47434;SHT31;33184;48.774;8.918;2022-10-19T19:26:49;13.49;87.39
47434;SHT31;33184;48.774;8.918;2022-10-19T19:32:10;13.53;87.00
47434;SHT31;33184;48.774;8.918;2022-10-19T19:37:30;13.53;87.17
47434;SHT31;33184;48.774;8.918;2022-10-19T19:42:51;13.55;87.34
47434;SHT31;33184;48.774;8.918;2022-10-19T19:48:12;13.59;87.28
47434;SHT31;33184;48.774;8.918;2022-10-19T19:53:32;13.67;87.31
47434;SHT31;33184;48.774;8.918;2022-10-19T19:58:58;13.69;87.00
47434;SHT31;33184;48.774;8.918;2022-10-19T20:04:18;13.76;87.06
47434;SHT31;33184;48.774;8.918;2022-10-19T20:09:39;13.73;86.84
47434;SHT31;33184;48.774;8.918;2022-10-19T20:14:59;13.72;86.57
47434;SHT31;33184;48.774;8.918;2022-10-19T20:20:20;13.60;86.54
47434;SHT31;33184;48.774;8.918;2022-10-19T20:25:41;13.50;86.59
47434;SHT31;33184;48.774;8.918;2022-10-19T20:31:06;13.36;86.47
47434;SHT31;33184;48.774;8.918;2022-10-19T20:36:27;13.05;87.16
47434;SHT31;33184;48.774;8.918;2022-10-19T20:41:48;12.98;87.68
47434;SHT31;33184;48.774;8.918;2022-10-19T20:47:08;12.93;87.98
47434;SHT31;33184;48.774;8.918;2022-10-19T20:52:29;12.93;88.10
47434;SHT31;33184;48.774;8.918;2022-10-19T20:57:50;12.81;87.91
47434;SHT31;33184;48.774;8.918;2022-10-19T21:03:10;12.60;87.87
47434;SHT31;33184;48.774;8.918;2022-10-19T21:08:32;12.44;87.81
47434;SHT31;33184;48.774;8.918;2022-10-19T21:13:58;12.33;87.87
47434;SHT31;33184;48.774;8.918;2022-10-19T21:19:23;12.30;88.03
47434;SHT31;33184;48.774;8.918;2022-10-19T21:24:44;12.32;88.22
47434;SHT31;33184;48.774;8.918;2022-10-19T21:30:05;12.33;88.06
47434;SHT31;33184;48.774;8.918;2022-10-19T21:35:26;12.10;87.79
47434;SHT31;33184;48.774;8.918;2022-10-19T21:40:46;11.99;88.28
47434;SHT31;33184;48.774;8.918;2022-10-19T21:46:11;11.96;88.44
47434;SHT31;33184;48.774;8.918;2022-10-19T21:51:35;11.92;88.50
47434;SHT31;33184;48.774;8.918;2022-10-19T21:56:56;11.93;88.65
47434;SHT31;33184;48.774;8.918;2022-10-19T22:02:19;11.89;88.82
47434;SHT31;33184;48.774;8.918;2022-10-19T22:07:40;11.85;88.84
47434;SHT31;33184;48.774;8.918;2022-10-19T22:13:00;11.71;88.78
47434;SHT31;33184;48.774;8.918;2022-10-19T22:18:21;11.67;88.97
47434;SHT31;33184;48.774;8.918;2022-10-19T22:23:41;11.61;88.92
47434;SHT31;33184;48.774;8.918;2022-10-19T22:29:03;11.55;88.93
47434;SHT31;33184;48.774;8.918;2022-10-19T22:34:24;11.47;88.92
47434;SHT31;33184;48.774;8.918;2022-10-19T22:39:45;11.44;89.02
47434;SHT31;33184;48.774;8.918;2022-10-19T22:45:05;11.44;88.83
47434;SHT31;33184;48.774;8.918;2022-10-19T22:50:26;11.35;88.36
47434;SHT31;33184;48.774;8.918;2022-10-19T22:55:47;11.30;88.49
47434;SHT31;33184;48.774;8.918;2022-10-19T23:01:10;11.28;88.67
47434;SHT31;33184;48.774;8.918;2022-10-19T23:06:30;11.23;89.01
47434;SHT31;33184;48.774;8.918;2022-10-19T23:11:51;11.18;89.48
47434;SHT31;33184;48.774;8.918;2022-10-19T23:17:12;11.18;89.59
47434;SHT31;33184;48.774;8.918;2022-10-19T23:22:32;11.16;89.30
47434;SHT31;33184;48.774;8.918;2022-10-19T23:27:53;11.03;89.16
47434;SHT31;33184;48.774;8.918;2022-10-19T23:33:13;10.86;89.07
47434;SHT31;33184;48.774;8.918;2022-10-19T23:38:34;10.75;89.08
47434;SHT31;33184;48.774;8.918;2022-10-19T23:43:55;10.71;89.35
47434;SHT31;33184;48.774;8.918;2022-10-19T23:49:15;10.66;89.69
47434;SHT31;33184;48.774;8.918;2022-10-19T23:54:36;10.73;89.80
47434;SHT31;33184;48.774;8.918;2022-10-19T23:59:56;10.83;89.69
